createdAt,value
2022-08-05T00:00:17.221Z,19.25
2022-08-05T00:02:51.042Z,19.27
2022-08-05T00:06:01.720Z,19.28
2022-08-05T00:08:34.181Z,19.23
2022-08-05T00:11:00.955Z,19.14
2022-08-05T00:13:38.775Z,19.12
2022-08-05T00:16:10.965Z,19.10
2022-08-05T00:18:42.342Z,19.13
2022-08-05T00:21:09.640Z,19.17
2022-08-05T00:23:46.681Z,19.16
2022-08-05T00:26:22.750Z,19.15
2022-08-05T00:28:51.211Z,19.13
2022-08-05T00:31:53.156Z,19.10
2022-08-05T00:34:55.197Z,19.02
2022-08-05T00:37:12.621Z,19.01
2022-08-05T00:39:57.239Z,19.02
2022-08-05T00:42:33.805Z,18.98
2022-08-05T00:45:01.626Z,18.96
2022-08-05T00:47:53.208Z,18.97
2022-08-05T00:50:16.418Z,18.95
2022-08-05T00:52:45.420Z,18.95
2022-08-05T00:55:14.011Z,18.93
2022-08-05T00:57:57.854Z,18.89
2022-08-05T01:00:29.037Z,18.83
2022-08-05T01:02:59.887Z,18.77
2022-08-05T01:05:27.725Z,18.74
2022-08-05T01:08:40.391Z,18.75
2022-08-05T01:10:53.341Z,18.69
2022-08-05T01:13:58.241Z,18.69
2022-08-05T01:16:39.081Z,18.68
2022-08-05T01:19:16.131Z,18.61
2022-08-05T01:22:04.332Z,18.55
2022-08-05T01:24:47.518Z,18.54
2022-08-05T01:27:23.499Z,18.54
2022-08-05T01:29:56.176Z,18.48
2022-08-05T01:32:27.960Z,18.45
2022-08-05T01:34:59.104Z,18.44
2022-08-05T01:37:44.296Z,18.41
2022-08-05T01:40:17.938Z,18.43
2022-08-05T01:42:46.980Z,18.46
2022-08-05T01:45:16.400Z,18.45
2022-08-05T01:47:46.427Z,18.49
2022-08-05T01:50:28.859Z,18.49
2022-08-05T01:53:01.438Z,18.46
2022-08-05T01:55:32.501Z,18.56
2022-08-05T01:58:10.382Z,18.48
2022-08-05T02:00:46.457Z,18.42
2022-08-05T02:03:34.442Z,18.42
2022-08-05T02:06:23.937Z,18.42
2022-08-05T02:08:58.164Z,18.46
2022-08-05T02:11:52.357Z,18.42
2022-08-05T02:14:47.003Z,18.39
2022-08-05T02:18:27.978Z,18.37
2022-08-05T02:20:20.716Z,18.37
2022-08-05T02:23:01.460Z,18.37
2022-08-05T02:25:50.264Z,18.32
2022-08-05T02:28:29.279Z,18.30
2022-08-05T02:31:22.676Z,18.25
2022-08-05T02:33:59.401Z,18.25
2022-08-05T02:36:31.353Z,18.24
2022-08-05T02:39:01.580Z,18.25
2022-08-05T02:41:43.286Z,18.21
2022-08-05T02:44:19.535Z,18.19
2022-08-05T02:46:58.692Z,18.10
2022-08-05T02:49:35.855Z,18.16
2022-08-05T02:52:08.659Z,18.14
2022-08-05T02:54:41.276Z,18.02
2022-08-05T02:58:11.928Z,18.07
2022-08-05T03:00:02.543Z,18.08
2022-08-05T03:02:34.830Z,18.07
2022-08-05T03:05:02.119Z,18.06
2022-08-05T03:07:59.299Z,18.06
2022-08-05T03:10:21.844Z,18.07
2022-08-05T03:15:24.381Z,18.00
2022-08-05T03:17:57.684Z,17.99
2022-08-05T03:20:27.448Z,18.01
2022-08-05T03:22:57.951Z,17.98
2022-08-05T03:25:32.630Z,17.94
2022-08-05T03:28:08.296Z,17.97
2022-08-05T03:30:38.193Z,17.96
2022-08-05T03:33:06.374Z,17.93
2022-08-05T03:35:40.746Z,17.92
2022-08-05T03:38:11.834Z,17.92
2022-08-05T03:40:48.465Z,17.93
2022-08-05T03:44:09.121Z,17.94
2022-08-05T03:46:05.639Z,17.96
2022-08-05T03:48:36.794Z,17.97
2022-08-05T03:52:36.872Z,17.98
2022-08-05T03:55:06.918Z,17.97
2022-08-05T03:57:29.062Z,17.97
2022-08-05T04:00:11.770Z,17.97
2022-08-05T04:02:57.532Z,17.92
2022-08-05T04:05:33.829Z,17.84
2022-08-05T04:08:14.614Z,17.81
2022-08-05T04:10:57.439Z,17.77
2022-08-05T04:13:27.731Z,17.69
2022-08-05T04:16:14.294Z,17.62
2022-08-05T04:18:41.583Z,17.56
2022-08-05T04:21:11.005Z,17.49
2022-08-05T04:24:04.910Z,17.46
2022-08-05T04:26:32.323Z,17.42
2022-08-05T04:29:00.683Z,17.39
2022-08-05T04:31:39.448Z,17.36
2022-08-05T04:34:31.960Z,17.37
2022-08-05T04:36:53.893Z,17.31
2022-08-05T04:39:22.929Z,17.33
2022-08-05T04:41:51.125Z,17.30
2022-08-05T04:44:29.627Z,17.26
2022-08-05T04:46:59.006Z,17.25
2022-08-05T04:49:38.388Z,17.23
2022-08-05T04:52:15.253Z,17.22
2022-08-05T04:54:42.500Z,17.18
2022-08-05T04:57:09.586Z,17.13
2022-08-05T04:59:39.178Z,17.10
2022-08-05T05:02:37.593Z,17.12
2022-08-05T05:05:02.780Z,17.08
2022-08-05T05:07:32.770Z,17.10
2022-08-05T05:10:06.376Z,17.12
2022-08-05T05:12:36.709Z,17.08
2022-08-05T05:15:10.591Z,17.10
2022-08-05T05:17:55.922Z,17.14
2022-08-05T05:20:28.789Z,17.13
2022-08-05T05:23:04.189Z,17.16
2022-08-05T05:25:40.948Z,17.25
2022-08-05T05:28:09.310Z,17.29
2022-08-05T05:30:37.177Z,17.39
2022-08-05T05:33:16.302Z,17.46
2022-08-05T05:35:46.657Z,17.49
2022-08-05T05:38:14.500Z,17.50
2022-08-05T05:40:49.752Z,17.62
2022-08-05T05:43:27.646Z,17.69
2022-08-05T05:46:13.792Z,17.68
2022-08-05T05:48:44.290Z,17.67
2022-08-05T05:51:15.885Z,17.70
2022-08-05T05:53:54.167Z,17.82
2022-08-05T05:56:32.656Z,17.78
2022-08-05T05:59:07.452Z,17.87
2022-08-05T06:01:40.337Z,17.76
2022-08-05T06:04:14.555Z,17.78
2022-08-05T06:06:47.280Z,17.81
2022-08-05T06:09:24.890Z,17.85
2022-08-05T06:12:01.146Z,17.82
2022-08-05T06:14:30.765Z,17.85
2022-08-05T06:16:58.834Z,17.89
2022-08-05T06:19:34.673Z,18.02
2022-08-05T06:22:06.935Z,18.15
2022-08-05T06:24:36.248Z,18.25
2022-08-05T06:27:05.572Z,18.41
2022-08-05T06:30:04.615Z,18.40
2022-08-05T06:32:40.220Z,18.58
2022-08-05T06:35:15.445Z,18.63
2022-08-05T06:37:57.561Z,18.69
2022-08-05T06:40:27.881Z,18.77
2022-08-05T06:43:00.163Z,18.89
2022-08-05T06:46:03.444Z,19.01
2022-08-05T06:48:52.907Z,18.93
2022-08-05T06:51:09.480Z,19.13
2022-08-05T06:53:39.083Z,19.20
2022-08-05T06:56:06.814Z,19.33
2022-08-05T06:58:53.341Z,19.45
2022-08-05T07:01:23.168Z,19.59
2022-08-05T07:03:56.031Z,19.83
2022-08-05T07:06:28.878Z,19.91
2022-08-05T07:08:59.098Z,19.91
2022-08-05T07:11:28.646Z,19.78
2022-08-05T07:14:20.721Z,19.81
2022-08-05T07:17:59.792Z,19.59
2022-08-05T07:22:38.687Z,19.24
2022-08-05T07:25:23.686Z,19.40
2022-08-05T07:28:05.392Z,19.54
2022-08-05T07:30:39.075Z,19.59
2022-08-05T07:33:15.946Z,19.50
2022-08-05T07:36:02.709Z,19.74
2022-08-05T07:38:35.662Z,19.77
2022-08-05T07:42:07.698Z,19.85
2022-08-05T07:44:04.337Z,19.82
2022-08-05T07:46:33.783Z,19.90
2022-08-05T07:49:06.341Z,20.03
2022-08-05T07:51:48.546Z,20.04
2022-08-05T07:54:33.615Z,20.21
2022-08-05T07:57:16.854Z,20.26
2022-08-05T07:59:53.885Z,20.22
2022-08-05T08:02:31.293Z,20.43
2022-08-05T08:05:16.598Z,20.63
2022-08-05T08:07:59.006Z,20.63
2022-08-05T08:10:26.846Z,20.68
2022-08-05T08:12:53.895Z,20.58
2022-08-05T08:16:33.797Z,20.56
2022-08-05T08:18:13.966Z,20.70
2022-08-05T08:20:59.872Z,20.73
2022-08-05T08:24:04.003Z,20.49
2022-08-05T08:26:15.081Z,20.53
2022-08-05T08:28:55.206Z,20.55
2022-08-05T08:31:27.038Z,20.56
2022-08-05T08:33:56.695Z,20.40
2022-08-05T08:36:38.733Z,20.39
2022-08-05T08:39:15.725Z,20.64
2022-08-05T08:41:52.512Z,20.69
2022-08-05T08:45:23.885Z,20.59
2022-08-05T08:48:06.111Z,20.51
2022-08-05T08:50:31.930Z,20.59
2022-08-05T08:53:11.933Z,20.57
2022-08-05T08:56:04.312Z,20.49
2022-08-05T08:58:37.508Z,20.51
2022-08-05T09:01:16.355Z,20.49
2022-08-05T09:03:54.440Z,20.76
2022-08-05T09:06:29.306Z,20.83
2022-08-05T09:09:01.469Z,20.72
2022-08-05T09:11:51.071Z,20.61
2022-08-05T09:14:58.978Z,20.36
2022-08-05T09:17:08.215Z,20.50
2022-08-05T09:20:01.434Z,20.66
2022-08-05T09:22:31.538Z,20.87
2022-08-05T09:25:13.876Z,21.12
2022-08-05T09:28:04.345Z,21.33
2022-08-05T09:30:35.680Z,21.34
2022-08-05T09:33:06.450Z,21.62
2022-08-05T09:35:37.949Z,21.64
2022-08-05T09:38:16.987Z,21.24
2022-08-05T09:40:52.221Z,21.16
2022-08-05T09:43:41.453Z,21.12
2022-08-05T09:46:30.721Z,21.06
2022-08-05T09:49:08.301Z,21.31
2022-08-05T09:51:49.977Z,21.33
2022-08-05T09:54:29.636Z,21.33
2022-08-05T09:57:01.603Z,21.39
2022-08-05T09:59:35.137Z,21.43
2022-08-05T10:02:04.608Z,21.24
2022-08-05T10:04:38.594Z,21.33
2022-08-05T10:07:19.848Z,21.06
2022-08-05T10:10:14.093Z,21.00
2022-08-05T10:12:49.351Z,21.17
2022-08-05T10:15:38.947Z,21.24
2022-08-05T10:18:16.874Z,21.04
2022-08-05T10:20:52.983Z,20.93
2022-08-05T10:23:55.246Z,21.00
2022-08-05T10:26:13.863Z,21.15
2022-08-05T10:28:46.367Z,21.31
2022-08-05T10:32:47.845Z,21.35
2022-08-05T10:34:07.183Z,21.42
2022-08-05T10:36:40.891Z,21.56
2022-08-05T10:39:24.413Z,21.33
2022-08-05T10:42:11.372Z,21.40
2022-08-05T10:44:43.195Z,21.17
2022-08-05T10:47:26.830Z,21.25
2022-08-05T10:50:28.075Z,21.21
2022-08-05T10:53:00.987Z,21.16
2022-08-05T10:55:32.918Z,21.12
2022-08-05T10:58:18.111Z,21.07
2022-08-05T11:00:48.005Z,21.08
2022-08-05T11:03:23.424Z,21.36
2022-08-05T11:06:05.923Z,21.32
2022-08-05T11:08:37.268Z,21.30
2022-08-05T11:11:44.426Z,21.40
2022-08-05T11:17:59.385Z,21.42
2022-08-05T11:20:41.446Z,21.48
2022-08-05T11:23:33.588Z,21.34
2022-08-05T11:26:28.905Z,21.46
2022-08-05T11:29:11.979Z,21.44
2022-08-05T11:31:58.329Z,21.56
2022-08-05T11:34:39.383Z,21.17
2022-08-05T11:38:26.147Z,21.33
2022-08-05T11:39:55.459Z,21.34
2022-08-05T11:42:28.445Z,21.25
2022-08-05T11:45:14.434Z,21.08
2022-08-05T11:47:54.852Z,20.93
2022-08-05T11:50:25.208Z,20.90
2022-08-05T11:53:09.816Z,20.97
2022-08-05T11:55:37.194Z,20.79
2022-08-05T11:58:11.307Z,20.66
2022-08-05T12:00:41.252Z,20.66
2022-08-05T12:03:28.480Z,20.61
2022-08-05T12:06:10.027Z,20.58
2022-08-05T12:08:59.733Z,20.32
2022-08-05T12:11:40.446Z,20.19
2022-08-05T12:14:10.275Z,20.40
2022-08-05T12:16:45.151Z,20.62
2022-08-05T12:20:25.443Z,20.78
2022-08-05T12:22:01.777Z,20.82
2022-08-05T12:24:30.138Z,20.82
2022-08-05T12:26:57.894Z,20.62
2022-08-05T12:29:27.753Z,20.68
2022-08-05T12:31:58.194Z,20.53
2022-08-05T12:34:36.910Z,20.68
2022-08-05T12:37:21.476Z,20.59
2022-08-05T12:39:53.799Z,20.49
2022-08-05T12:42:26.888Z,20.53
2022-08-05T12:45:02.433Z,20.70
2022-08-05T12:47:31.068Z,21.01
2022-08-05T12:50:04.561Z,21.17
2022-08-05T12:52:39.663Z,20.87
2022-08-05T12:55:26.966Z,21.01
2022-08-05T12:58:49.409Z,20.95
2022-08-05T13:02:01.797Z,20.85
2022-08-05T13:03:42.013Z,20.93
2022-08-05T13:06:19.755Z,20.87
2022-08-05T13:08:50.884Z,20.77
2022-08-05T13:12:02.957Z,20.82
2022-08-05T13:14:20.303Z,20.91
2022-08-05T13:16:58.986Z,20.87
2022-08-05T13:19:40.435Z,21.29
2022-08-05T13:22:29.317Z,21.79
2022-08-05T13:25:00.848Z,22.45
2022-08-05T13:27:39.244Z,22.27
2022-08-05T13:30:36.045Z,22.27
2022-08-05T13:32:57.360Z,22.33
2022-08-05T13:35:43.008Z,22.88
2022-08-05T13:38:28.148Z,23.28
2022-08-05T13:41:01.814Z,23.56
2022-08-05T13:43:45.618Z,23.14
2022-08-05T13:46:30.656Z,22.34
2022-08-05T13:49:10.477Z,22.84
2022-08-05T13:51:46.503Z,22.79
2022-08-05T13:54:16.297Z,22.13
2022-08-05T13:56:51.560Z,21.92
2022-08-05T13:59:24.894Z,22.28
2022-08-05T14:02:00.297Z,22.76
2022-08-05T14:04:49.422Z,22.62
2022-08-05T14:07:56.393Z,22.00
2022-08-05T14:10:12.825Z,22.42
2022-08-05T14:12:42.670Z,23.27
2022-08-05T14:16:08.431Z,23.80
2022-08-05T14:17:59.849Z,23.39
2022-08-05T14:20:29.901Z,23.32
2022-08-05T14:22:59.895Z,23.42
2022-08-05T14:25:28.565Z,23.70
2022-08-05T14:27:58.430Z,24.03
2022-08-05T14:30:29.958Z,24.57
2022-08-05T14:32:57.537Z,24.70
2022-08-05T14:35:36.942Z,23.77
2022-08-05T14:38:32.169Z,23.31
2022-08-05T14:41:07.441Z,22.95
2022-08-05T14:44:01.881Z,22.02
2022-08-05T14:46:28.753Z,21.59
2022-08-05T14:49:03.452Z,21.41
2022-08-05T14:51:38.893Z,21.28
2022-08-05T14:54:27.771Z,21.86
2022-08-05T14:56:58.753Z,22.28
2022-08-05T14:59:29.518Z,22.26
2022-08-05T15:02:24.358Z,22.75
2022-08-05T15:04:54.379Z,23.10
2022-08-05T15:08:11.503Z,22.55
2022-08-05T15:10:14.766Z,22.17
2022-08-05T15:13:00.195Z,22.18
2022-08-05T15:15:55.484Z,22.04
2022-08-05T15:18:15.366Z,22.11
2022-08-05T15:20:44.563Z,21.44
2022-08-05T15:23:13.460Z,21.00
2022-08-05T15:25:52.619Z,20.86
2022-08-05T15:28:27.401Z,20.63
2022-08-05T15:30:57.603Z,20.69
2022-08-05T15:33:56.442Z,21.02
2022-08-05T15:36:17.737Z,21.07
2022-08-05T15:40:41.048Z,20.75
2022-08-05T15:41:58.421Z,20.26
2022-08-05T15:44:32.342Z,20.05
2022-08-05T15:47:01.511Z,20.28
2022-08-05T15:49:53.644Z,19.93
2022-08-05T15:52:16.781Z,19.62
2022-08-05T15:54:57.413Z,19.84
2022-08-05T15:57:24.926Z,20.28
2022-08-05T15:59:57.892Z,20.67
2022-08-05T16:02:29.084Z,20.73
2022-08-05T16:04:57.279Z,21.35
2022-08-05T16:07:24.665Z,21.47
2022-08-05T16:09:57.958Z,20.60
2022-08-05T16:12:26.042Z,20.43
2022-08-05T16:14:53.351Z,20.77
2022-08-05T16:17:20.488Z,21.55
2022-08-05T16:20:04.525Z,21.66
2022-08-05T16:22:37.730Z,21.16
2022-08-05T16:25:09.688Z,21.19
2022-08-05T16:28:01.085Z,21.66
2022-08-05T16:30:28.747Z,21.75
2022-08-05T16:32:57.902Z,21.97
2022-08-05T16:35:32.500Z,22.01
2022-08-05T16:38:16.316Z,20.86
2022-08-05T16:40:55.145Z,20.65
2022-08-05T16:43:24.726Z,20.44
2022-08-05T16:46:07.828Z,20.50
2022-08-05T16:48:40.371Z,21.04
2022-08-05T16:51:09.998Z,21.34
2022-08-05T16:54:05.124Z,21.62
2022-08-05T16:56:30.464Z,21.77
2022-08-05T16:58:58.485Z,21.33
2022-08-05T17:01:27.348Z,21.74
2022-08-05T17:04:15.058Z,21.87
2022-08-05T17:06:42.279Z,21.80
2022-08-05T17:09:09.495Z,21.46
2022-08-05T17:11:46.050Z,21.39
2022-08-05T17:14:34.338Z,21.23
2022-08-05T17:17:05.756Z,20.49
2022-08-05T17:19:33.079Z,20.32
2022-08-05T17:22:02.235Z,20.07
2022-08-05T17:24:38.785Z,19.77
2022-08-05T17:27:09.510Z,19.44
2022-08-05T17:29:40.984Z,19.40
2022-08-05T17:32:11.687Z,19.18
2022-08-05T17:34:44.128Z,18.89
2022-08-05T17:37:36.026Z,18.65
2022-08-05T17:40:00.184Z,18.58
2022-08-05T17:42:32.041Z,18.48
2022-08-05T17:45:18.198Z,18.39
2022-08-05T17:47:53.417Z,18.35
2022-08-05T17:50:28.545Z,18.24
2022-08-05T17:53:02.607Z,18.27
2022-08-05T17:55:34.559Z,18.33
2022-08-05T17:58:12.506Z,18.27
2022-08-05T18:00:45.042Z,18.18
2022-08-05T18:03:39.344Z,17.94
2022-08-05T18:06:12.774Z,17.82
2022-08-05T18:08:52.165Z,17.84
2022-08-05T18:11:24.313Z,17.79
2022-08-05T18:14:03.253Z,17.87
2022-08-05T18:16:51.570Z,17.90
2022-08-05T18:19:23.076Z,17.73
2022-08-05T18:22:09.823Z,17.80
2022-08-05T18:24:39.523Z,17.70
2022-08-05T18:27:12.845Z,17.71
2022-08-05T18:29:53.613Z,17.65
2022-08-05T18:32:27.989Z,17.58
2022-08-05T18:34:57.360Z,17.55
2022-08-05T18:37:34.547Z,17.43
2022-08-05T18:40:33.668Z,17.41
2022-08-05T18:42:59.683Z,17.36
2022-08-05T18:45:41.247Z,17.37
2022-08-05T18:48:11.328Z,17.24
2022-08-05T18:51:01.884Z,17.14
2022-08-05T18:53:45.876Z,17.12
2022-08-05T18:56:17.667Z,17.04
2022-08-05T18:58:50.826Z,16.99
2022-08-05T19:01:20.674Z,16.99
2022-08-05T19:04:00.611Z,16.99
2022-08-05T19:06:37.363Z,16.94
2022-08-05T19:09:11.957Z,16.87
2022-08-05T19:11:59.941Z,16.79
2022-08-05T19:14:37.693Z,16.67
2022-08-05T19:17:20.888Z,16.65
2022-08-05T19:19:49.192Z,16.51
2022-08-05T19:22:19.223Z,16.45
2022-08-05T19:25:00.449Z,16.29
2022-08-05T19:27:30.388Z,16.31
2022-08-05T19:29:58.321Z,16.28
2022-08-05T19:32:26.503Z,16.23
2022-08-05T19:34:59.498Z,16.23
2022-08-05T19:38:04.175Z,16.20
2022-08-05T19:40:28.131Z,16.14
2022-08-05T19:43:04.707Z,16.17
2022-08-05T19:45:33.301Z,16.19
2022-08-05T19:48:06.416Z,16.12
2022-08-05T19:50:36.401Z,16.18
2022-08-05T19:53:09.391Z,16.07
2022-08-05T19:56:14.765Z,15.84
2022-08-05T19:58:29.766Z,15.85
2022-08-05T20:01:00.936Z,15.85
2022-08-05T20:03:40.823Z,15.83
2022-08-05T20:06:11.748Z,15.77
2022-08-05T20:08:47.574Z,15.73
2022-08-05T20:11:18.137Z,15.69
2022-08-05T20:13:59.020Z,15.72
2022-08-05T20:16:34.532Z,15.66
2022-08-05T20:19:06.447Z,15.61
2022-08-05T20:21:38.361Z,15.62
2022-08-05T20:24:06.375Z,15.60
2022-08-05T20:26:34.770Z,15.59
2022-08-05T20:29:01.908Z,15.55
2022-08-05T20:31:42.153Z,15.43
2022-08-05T20:34:17.095Z,15.30
2022-08-05T20:36:44.483Z,15.34
2022-08-05T20:39:16.129Z,15.24
2022-08-05T20:41:45.452Z,15.23
2022-08-05T20:44:18.863Z,15.18
2022-08-05T20:47:01.675Z,15.18
2022-08-05T20:49:38.127Z,15.07
2022-08-05T20:52:12.600Z,15.11
2022-08-05T20:54:59.028Z,15.10
2022-08-05T20:57:43.832Z,15.01
2022-08-05T21:00:40.726Z,14.98
2022-08-05T21:03:07.385Z,14.97
2022-08-05T21:05:47.901Z,14.96
2022-08-05T21:08:26.529Z,14.85
2022-08-05T21:11:00.519Z,14.81
2022-08-05T21:13:56.103Z,14.83
2022-08-05T21:16:19.371Z,14.77
2022-08-05T21:18:46.501Z,14.83
2022-08-05T21:21:16.062Z,14.82
2022-08-05T21:23:43.553Z,14.76
2022-08-05T21:26:14.276Z,14.67
2022-08-05T21:28:47.614Z,14.69
2022-08-05T21:31:18.510Z,14.72
2022-08-05T21:33:47.581Z,14.70
2022-08-05T21:36:19.086Z,14.62
2022-08-05T21:38:57.283Z,14.59
2022-08-05T21:41:33.680Z,14.54
2022-08-05T21:44:04.344Z,14.55
2022-08-05T21:46:37.431Z,14.51
2022-08-05T21:49:10.028Z,14.45
2022-08-05T21:52:22.459Z,14.37
2022-08-05T21:54:44.447Z,14.37
2022-08-05T21:57:34.801Z,14.31
2022-08-05T22:00:11.340Z,14.23
2022-08-05T22:02:38.938Z,14.22
2022-08-05T22:05:09.033Z,14.19
2022-08-05T22:07:54.265Z,14.11
2022-08-05T22:10:26.550Z,14.16
2022-08-05T22:14:05.298Z,14.15
2022-08-05T22:16:01.425Z,14.07
2022-08-05T22:18:39.058Z,14.11
2022-08-05T22:21:16.581Z,14.11
2022-08-05T22:24:09.023Z,14.06
2022-08-05T22:26:59.312Z,14.03
2022-08-05T22:29:30.712Z,14.02
2022-08-05T22:32:02.926Z,13.95
2022-08-05T22:34:31.734Z,13.98
2022-08-05T22:36:59.447Z,13.90
2022-08-05T22:39:33.081Z,13.92
2022-08-05T22:42:09.810Z,13.91
2022-08-05T22:44:48.207Z,13.86
2022-08-05T22:47:29.423Z,13.85
2022-08-05T22:50:19.446Z,13.92
2022-08-05T22:52:49.788Z,13.90
2022-08-05T22:55:21.287Z,13.85
2022-08-05T22:57:53.795Z,13.86
2022-08-05T23:00:23.694Z,13.81
2022-08-05T23:02:53.570Z,13.80
2022-08-05T23:05:22.603Z,13.73
2022-08-05T23:07:50.836Z,13.74
2022-08-05T23:10:20.855Z,13.70
2022-08-05T23:12:54.744Z,13.70
2022-08-05T23:15:35.353Z,13.58
2022-08-05T23:18:06.045Z,13.63
2022-08-05T23:20:39.962Z,13.61
2022-08-05T23:23:10.253Z,13.59
2022-08-05T23:25:52.568Z,13.53
2022-08-05T23:28:30.962Z,13.58
2022-08-05T23:31:07.042Z,13.54
2022-08-05T23:34:04.982Z,13.54
2022-08-05T23:36:38.608Z,13.48
2022-08-05T23:39:07.804Z,13.42
2022-08-05T23:41:41.054Z,13.32
2022-08-05T23:44:16.715Z,13.26
2022-08-05T23:46:44.099Z,13.25
2022-08-05T23:49:17.033Z,13.23
2022-08-05T23:52:08.280Z,13.20
2022-08-05T23:54:38.585Z,13.20
2022-08-05T23:57:09.007Z,13.21
